createdAt,value
2024-01-27T00:00:18.208Z,2.26
2024-01-27T00:01:18.218Z,2.11
2024-01-27T00:02:18.122Z,2.20
2024-01-27T00:03:18.247Z,2.24
2024-01-27T00:04:18.213Z,1.84
2024-01-27T00:05:18.294Z,2.13
2024-01-27T00:06:18.305Z,2.05
2024-01-27T00:07:18.341Z,2.11
2024-01-27T00:08:18.196Z,2.11
2024-01-27T00:09:18.279Z,1.78
2024-01-27T00:10:18.242Z,1.61
2024-01-27T00:11:18.275Z,1.62
2024-01-27T00:12:18.341Z,1.44
2024-01-27T00:13:18.261Z,0.97
2024-01-27T00:14:18.278Z,0.86
2024-01-27T00:15:18.258Z,1.65
2024-01-27T00:16:18.240Z,1.74
2024-01-27T00:17:18.208Z,1.71
2024-01-27T00:18:18.307Z,1.47
2024-01-27T00:19:18.409Z,2.45
2024-01-27T00:20:18.383Z,2.49
2024-01-27T00:21:18.257Z,2.20
2024-01-27T00:22:18.304Z,1.60
2024-01-27T00:23:18.257Z,1.47
2024-01-27T00:24:18.299Z,1.16
2024-01-27T00:25:18.290Z,1.19
2024-01-27T00:26:18.329Z,1.61
2024-01-27T00:27:18.397Z,1.60
2024-01-27T00:28:18.402Z,1.80
2024-01-27T00:29:18.453Z,4.16
2024-01-27T00:30:18.596Z,3.52
2024-01-27T00:31:18.525Z,2.75
2024-01-27T00:32:18.592Z,2.43
2024-01-27T00:33:18.650Z,1.78
2024-01-27T00:34:18.614Z,1.37
2024-01-27T00:35:18.590Z,1.34
2024-01-27T00:36:18.659Z,1.24
2024-01-27T00:37:18.687Z,1.11
2024-01-27T00:38:18.692Z,1.15
2024-01-27T00:39:18.745Z,1.19
2024-01-27T00:40:18.763Z,1.48
2024-01-27T00:41:18.788Z,1.50
2024-01-27T00:42:18.828Z,1.13
2024-01-27T00:43:18.781Z,0.95
2024-01-27T00:44:18.760Z,0.88
2024-01-27T00:45:18.771Z,1.06
2024-01-27T00:46:18.831Z,1.46
2024-01-27T00:47:18.833Z,1.79
2024-01-27T00:48:19.050Z,2.07
2024-01-27T00:49:18.983Z,2.46
2024-01-27T00:50:18.886Z,2.70
2024-01-27T00:51:18.908Z,2.77
2024-01-27T00:52:18.894Z,2.73
2024-01-27T00:53:18.896Z,2.56
2024-01-27T00:54:19.016Z,2.30
2024-01-27T00:55:18.938Z,2.04
2024-01-27T00:56:18.949Z,1.84
2024-01-27T00:57:19.010Z,1.64
2024-01-27T00:58:18.969Z,1.50
2024-01-27T00:59:19.034Z,1.75
2024-01-27T01:00:19.066Z,1.54
2024-01-27T01:01:19.061Z,1.59
2024-01-27T01:02:19.020Z,2.20
2024-01-27T01:03:19.342Z,1.39
2024-01-27T01:04:19.171Z,1.15
2024-01-27T01:05:19.196Z,0.96
2024-01-27T01:06:19.460Z,0.93
2024-01-27T01:07:19.246Z,0.78
2024-01-27T01:08:19.239Z,0.70
2024-01-27T01:09:19.303Z,0.60
2024-01-27T01:10:19.287Z,0.80
2024-01-27T01:11:19.285Z,0.81
2024-01-27T01:12:19.398Z,0.71
2024-01-27T01:13:19.285Z,0.52
2024-01-27T01:14:19.332Z,0.48
2024-01-27T01:15:19.323Z,0.43
2024-01-27T01:16:19.257Z,0.41
2024-01-27T01:17:19.265Z,0.48
2024-01-27T01:18:19.356Z,0.50
2024-01-27T01:19:19.311Z,0.50
2024-01-27T01:20:19.286Z,0.45
2024-01-27T01:21:19.337Z,0.47
2024-01-27T01:22:19.300Z,0.55
2024-01-27T01:23:19.298Z,0.54
2024-01-27T01:24:19.354Z,0.52
2024-01-27T01:25:19.322Z,0.50
2024-01-27T01:26:19.381Z,0.50
2024-01-27T01:27:19.444Z,0.53
2024-01-27T01:28:19.511Z,0.52
2024-01-27T01:29:19.496Z,0.50
2024-01-27T01:30:19.623Z,0.51
2024-01-27T01:31:19.566Z,0.53
2024-01-27T01:32:19.582Z,0.55
2024-01-27T01:33:19.884Z,0.54
2024-01-27T01:34:19.837Z,0.56
2024-01-27T01:35:19.731Z,0.62
2024-01-27T01:36:19.838Z,0.55
2024-01-27T01:37:19.814Z,0.52
2024-01-27T01:38:19.888Z,0.49
2024-01-27T01:39:19.990Z,0.50
2024-01-27T01:40:19.939Z,0.49
2024-01-27T01:41:19.946Z,0.49
2024-01-27T01:42:19.978Z,0.53
2024-01-27T01:43:19.966Z,0.51
2024-01-27T01:44:19.966Z,0.51
2024-01-27T01:45:20.078Z,0.53
2024-01-27T01:46:20.038Z,0.55
2024-01-27T01:47:20.092Z,0.54
2024-01-27T01:48:20.292Z,0.56
2024-01-27T01:49:20.244Z,0.57
2024-01-27T01:50:20.204Z,0.55
2024-01-27T01:51:20.212Z,0.57
2024-01-27T01:52:20.134Z,0.58
2024-01-27T01:53:20.147Z,0.57
2024-01-27T01:54:20.202Z,0.53
2024-01-27T01:55:20.221Z,0.52
2024-01-27T01:56:20.267Z,0.53
2024-01-27T01:57:20.425Z,0.57
2024-01-27T01:58:20.363Z,0.69
2024-01-27T01:59:20.397Z,0.71
2024-01-27T02:00:20.686Z,0.65
2024-01-27T02:01:20.641Z,0.62
2024-01-27T02:02:20.486Z,0.60
2024-01-27T02:03:20.561Z,0.60
2024-01-27T02:04:20.618Z,0.58
2024-01-27T02:05:20.644Z,0.63
2024-01-27T02:06:20.715Z,0.66
2024-01-27T02:07:20.668Z,0.68
2024-01-27T02:08:20.673Z,0.68
2024-01-27T02:09:20.787Z,0.68
2024-01-27T02:10:20.697Z,0.59
2024-01-27T02:11:20.752Z,0.53
2024-01-27T02:12:20.825Z,0.54
2024-01-27T02:13:20.806Z,0.50
2024-01-27T02:14:20.845Z,0.51
2024-01-27T02:15:20.878Z,0.51
2024-01-27T02:16:20.879Z,0.51
2024-01-27T02:17:20.927Z,0.53
2024-01-27T02:18:21.004Z,0.56
2024-01-27T02:19:21.023Z,0.53
2024-01-27T02:20:20.985Z,0.51
2024-01-27T02:21:21.066Z,0.53
2024-01-27T02:22:21.009Z,0.51
2024-01-27T02:23:21.036Z,0.50
2024-01-27T02:24:21.109Z,0.49
2024-01-27T02:25:21.136Z,0.51
2024-01-27T02:26:21.200Z,0.54
2024-01-27T02:27:21.309Z,0.58
2024-01-27T02:28:21.244Z,0.58
2024-01-27T02:29:21.255Z,0.57
2024-01-27T02:30:21.331Z,0.69
2024-01-27T02:31:21.347Z,0.69
2024-01-27T02:32:21.379Z,0.67
2024-01-27T02:33:21.458Z,0.67
2024-01-27T02:34:21.582Z,0.65
2024-01-27T02:35:21.492Z,0.66
2024-01-27T02:36:21.581Z,0.69
2024-01-27T02:37:21.537Z,0.72
2024-01-27T02:38:21.567Z,0.69
2024-01-27T02:39:21.606Z,0.64
2024-01-27T02:40:21.656Z,0.64
2024-01-27T02:41:21.645Z,0.61
2024-01-27T02:42:21.685Z,0.62
2024-01-27T02:43:21.704Z,0.60
2024-01-27T02:44:21.702Z,0.66
2024-01-27T02:45:21.726Z,0.69
2024-01-27T02:46:21.794Z,0.61
2024-01-27T02:47:21.780Z,0.59
2024-01-27T02:48:21.927Z,0.59
2024-01-27T02:49:22.012Z,0.56
2024-01-27T02:50:21.844Z,0.74
2024-01-27T02:51:22.013Z,0.96
2024-01-27T02:52:21.913Z,0.81
2024-01-27T02:53:21.958Z,1.14
2024-01-27T02:54:22.031Z,0.96
2024-01-27T02:55:21.992Z,0.78
2024-01-27T02:56:22.031Z,0.66
2024-01-27T02:57:22.028Z,0.60
2024-01-27T02:58:22.914Z,0.57
2024-01-27T02:59:22.032Z,0.56
2024-01-27T03:00:21.976Z,0.53
2024-01-27T03:01:22.136Z,0.51
2024-01-27T03:02:21.971Z,0.52
2024-01-27T03:03:22.010Z,0.51
2024-01-27T03:04:22.011Z,0.51
2024-01-27T03:05:21.992Z,0.51
2024-01-27T03:06:22.016Z,0.51
2024-01-27T03:07:21.975Z,0.51
2024-01-27T03:08:22.036Z,0.54
2024-01-27T03:09:22.050Z,0.53
2024-01-27T03:10:22.018Z,0.53
2024-01-27T03:11:21.989Z,0.53
2024-01-27T03:12:22.053Z,0.53
2024-01-27T03:13:22.042Z,0.54
2024-01-27T03:14:22.074Z,0.55
2024-01-27T03:15:24.053Z,0.56
2024-01-27T03:16:22.124Z,0.56
2024-01-27T03:17:22.151Z,0.57
2024-01-27T03:18:22.245Z,0.57
2024-01-27T03:19:22.278Z,0.55
2024-01-27T03:20:22.262Z,0.53
2024-01-27T03:21:22.349Z,0.52
2024-01-27T03:22:22.323Z,0.50
2024-01-27T03:23:22.312Z,0.50
2024-01-27T03:24:22.352Z,0.50
2024-01-27T03:25:22.314Z,0.55
2024-01-27T03:26:22.317Z,0.59
2024-01-27T03:27:22.308Z,0.61
2024-01-27T03:28:22.366Z,0.59
2024-01-27T03:29:22.360Z,0.62
2024-01-27T03:30:22.415Z,0.62
2024-01-27T03:31:22.404Z,0.67
2024-01-27T03:32:22.408Z,0.64
2024-01-27T03:33:22.532Z,0.63
2024-01-27T03:34:22.577Z,0.61
2024-01-27T03:35:22.553Z,0.65
2024-01-27T03:36:22.576Z,0.63
2024-01-27T03:37:22.544Z,0.66
2024-01-27T03:38:22.594Z,0.68
2024-01-27T03:39:22.649Z,0.69
2024-01-27T03:40:22.670Z,0.72
2024-01-27T03:41:22.746Z,0.70
2024-01-27T03:42:22.807Z,0.71
2024-01-27T03:43:22.736Z,0.69
2024-01-27T03:44:22.779Z,0.66
2024-01-27T03:45:22.854Z,0.66
2024-01-27T03:46:22.798Z,0.66
2024-01-27T03:47:22.835Z,0.70
2024-01-27T03:48:22.971Z,0.73
2024-01-27T03:49:22.937Z,0.75
2024-01-27T03:50:22.841Z,0.79
2024-01-27T03:51:22.891Z,0.71
2024-01-27T03:52:22.856Z,0.65
2024-01-27T03:53:22.859Z,0.60
2024-01-27T03:54:22.957Z,0.56
2024-01-27T03:55:22.875Z,0.52
2024-01-27T03:56:22.846Z,0.53
2024-01-27T03:57:22.914Z,0.54
2024-01-27T03:58:22.859Z,0.53
2024-01-27T03:59:22.977Z,0.56
2024-01-27T04:00:23.009Z,0.56
2024-01-27T04:01:23.045Z,0.59
2024-01-27T04:02:23.054Z,0.61
2024-01-27T04:03:23.148Z,0.63
2024-01-27T04:04:23.225Z,0.66
2024-01-27T04:05:23.130Z,0.72
2024-01-27T04:06:23.251Z,0.77
2024-01-27T04:07:23.249Z,0.82
2024-01-27T04:08:23.324Z,0.85
2024-01-27T04:09:23.410Z,0.89
2024-01-27T04:10:23.417Z,0.94
2024-01-27T04:11:23.490Z,1.06
2024-01-27T04:12:23.441Z,1.13
2024-01-27T04:13:23.473Z,1.34
2024-01-27T04:14:23.637Z,1.39
2024-01-27T04:15:23.531Z,1.47
2024-01-27T04:16:23.556Z,1.48
2024-01-27T04:17:23.540Z,1.54
2024-01-27T04:18:23.675Z,1.51
2024-01-27T04:19:23.657Z,1.68
2024-01-27T04:20:23.597Z,1.69
2024-01-27T04:21:23.685Z,1.90
2024-01-27T04:22:23.568Z,2.12
2024-01-27T04:23:23.650Z,2.15
2024-01-27T04:24:23.769Z,2.06
2024-01-27T04:25:23.696Z,1.96
2024-01-27T04:26:24.527Z,1.84
2024-01-27T04:27:23.921Z,1.80
2024-01-27T04:28:23.863Z,1.79
2024-01-27T04:29:23.895Z,1.90
2024-01-27T04:30:23.952Z,1.95
2024-01-27T04:31:23.879Z,1.99
2024-01-27T04:32:23.992Z,1.98
2024-01-27T04:33:24.089Z,2.07
2024-01-27T04:34:24.039Z,1.89
2024-01-27T04:35:23.926Z,1.75
2024-01-27T04:36:23.982Z,1.66
2024-01-27T04:37:24.057Z,1.67
2024-01-27T04:38:24.088Z,1.64
2024-01-27T04:39:24.211Z,1.69
2024-01-27T04:40:24.161Z,1.79
2024-01-27T04:41:24.193Z,1.99
2024-01-27T04:42:24.298Z,2.16
2024-01-27T04:43:24.306Z,2.22
2024-01-27T04:44:36.644Z,0.50
2024-01-27T04:45:36.663Z,0.50
2024-01-27T04:46:36.643Z,0.50
2024-01-27T04:47:36.704Z,0.50
2024-01-27T04:48:36.779Z,0.50
2024-01-27T04:49:36.927Z,0.50
2024-01-27T04:50:36.665Z,0.50
2024-01-27T04:51:36.734Z,0.50
2024-01-27T04:52:36.711Z,0.51
2024-01-27T04:53:36.672Z,0.50
2024-01-27T04:54:36.726Z,0.50
2024-01-27T04:55:36.674Z,0.50
2024-01-27T04:56:36.713Z,0.50
2024-01-27T04:57:36.745Z,0.51
2024-01-27T04:58:36.659Z,0.54
2024-01-27T04:59:36.709Z,0.55
2024-01-27T05:00:36.790Z,0.58
2024-01-27T05:01:36.751Z,0.62
2024-01-27T05:02:36.760Z,0.67
2024-01-27T05:03:36.916Z,0.74
2024-01-27T05:04:37.828Z,0.87
2024-01-27T05:05:37.163Z,0.88
2024-01-27T05:06:37.085Z,0.85
2024-01-27T05:07:36.997Z,0.84
2024-01-27T05:08:37.080Z,0.83
2024-01-27T05:09:37.240Z,0.83
2024-01-27T05:10:37.241Z,0.89
2024-01-27T05:11:37.286Z,0.87
2024-01-27T05:12:37.477Z,0.78
2024-01-27T05:13:37.437Z,0.74
2024-01-27T05:14:37.502Z,0.68
2024-01-27T05:15:37.631Z,0.61
2024-01-27T05:16:37.611Z,0.57
2024-01-27T05:17:37.716Z,0.52
2024-01-27T05:18:37.820Z,0.51
2024-01-27T05:19:37.836Z,0.56
2024-01-27T05:20:37.907Z,0.60
2024-01-27T05:21:37.918Z,0.63
2024-01-27T05:22:37.970Z,0.68
2024-01-27T05:23:38.032Z,0.74
2024-01-27T05:24:38.090Z,0.87
2024-01-27T05:25:38.093Z,0.82
2024-01-27T05:26:38.150Z,0.84
2024-01-27T05:27:38.246Z,0.83
2024-01-27T05:28:38.254Z,0.77
2024-01-27T05:29:38.300Z,0.72
2024-01-27T05:30:38.426Z,0.65
2024-01-27T05:31:38.393Z,0.66
2024-01-27T05:32:38.522Z,0.66
2024-01-27T05:33:38.643Z,0.63
2024-01-27T05:34:38.711Z,0.69
2024-01-27T05:35:38.594Z,0.68
2024-01-27T05:36:38.588Z,0.63
2024-01-27T05:37:38.619Z,0.67
2024-01-27T05:38:38.692Z,0.63
2024-01-27T05:39:38.767Z,0.64
2024-01-27T05:40:41.769Z,0.66
2024-01-27T05:41:38.746Z,0.71
2024-01-27T05:42:38.787Z,0.67
2024-01-27T05:43:38.766Z,0.61
2024-01-27T05:44:38.829Z,0.58
2024-01-27T05:45:38.886Z,0.65
2024-01-27T05:46:40.427Z,0.54
2024-01-27T05:47:38.926Z,0.52
2024-01-27T05:48:39.015Z,0.54
2024-01-27T05:49:39.099Z,0.50
2024-01-27T05:50:38.922Z,0.50
2024-01-27T05:51:38.950Z,0.51
2024-01-27T05:52:38.951Z,0.50
2024-01-27T05:53:38.999Z,0.51
2024-01-27T05:54:39.078Z,0.53
2024-01-27T05:55:38.987Z,0.54
2024-01-27T05:56:38.953Z,0.56
2024-01-27T05:57:38.998Z,0.59
2024-01-27T05:58:38.996Z,0.69
2024-01-27T05:59:39.011Z,0.78
2024-01-27T06:00:39.166Z,0.84
2024-01-27T06:01:39.039Z,0.89
2024-01-27T06:02:38.984Z,0.97
2024-01-27T06:03:39.104Z,0.97
2024-01-27T06:04:39.053Z,0.94
2024-01-27T06:05:39.041Z,0.92
2024-01-27T06:06:39.117Z,0.89
2024-01-27T06:07:39.061Z,0.88
2024-01-27T06:08:39.124Z,0.93
2024-01-27T06:09:39.301Z,0.98
2024-01-27T06:10:39.240Z,1.05
2024-01-27T06:11:39.282Z,1.18
2024-01-27T06:12:39.344Z,1.24
2024-01-27T06:13:39.520Z,1.19
2024-01-27T06:14:39.343Z,1.14
2024-01-27T06:15:39.374Z,1.15
2024-01-27T06:16:39.343Z,1.13
2024-01-27T06:17:39.444Z,1.14
2024-01-27T06:18:39.520Z,1.17
2024-01-27T06:19:39.536Z,1.19
2024-01-27T06:20:39.398Z,1.28
2024-01-27T06:21:39.441Z,1.32
2024-01-27T06:22:39.390Z,1.37
2024-01-27T06:23:39.368Z,1.37
2024-01-27T06:24:39.424Z,1.33
2024-01-27T06:25:39.411Z,1.36
2024-01-27T06:26:39.403Z,1.29
2024-01-27T06:27:39.428Z,1.21
2024-01-27T06:28:39.461Z,1.12
2024-01-27T06:29:39.470Z,1.02
2024-01-27T06:30:39.517Z,1.00
2024-01-27T06:31:39.445Z,1.03
2024-01-27T06:32:39.532Z,1.03
2024-01-27T06:33:39.646Z,1.04
2024-01-27T06:34:39.522Z,1.04
2024-01-27T06:35:39.498Z,1.04
2024-01-27T06:36:39.501Z,1.01
2024-01-27T06:37:39.459Z,0.91
2024-01-27T06:38:39.439Z,0.90
2024-01-27T06:39:39.596Z,0.97
2024-01-27T06:40:39.457Z,1.15
2024-01-27T06:41:39.498Z,1.44
2024-01-27T06:42:39.603Z,1.59
2024-01-27T06:43:39.534Z,1.62
2024-01-27T06:44:39.534Z,1.72
2024-01-27T06:45:39.621Z,1.86
2024-01-27T06:46:39.565Z,2.15
2024-01-27T06:47:39.542Z,2.44
2024-01-27T06:48:39.761Z,2.69
2024-01-27T06:49:39.634Z,2.90
2024-01-27T06:50:39.590Z,2.94
2024-01-27T06:51:39.597Z,3.02
2024-01-27T06:52:39.598Z,3.20
2024-01-27T06:53:39.639Z,3.98
2024-01-27T06:54:39.742Z,4.90
2024-01-27T06:55:43.473Z,5.60
2024-01-27T06:56:40.343Z,5.64
2024-01-27T06:57:39.845Z,5.82
2024-01-27T06:58:39.774Z,6.34
2024-01-27T06:59:39.834Z,7.11
2024-01-27T07:00:39.890Z,8.59
2024-01-27T07:01:39.884Z,8.77
2024-01-27T07:02:39.829Z,8.26
2024-01-27T07:03:39.942Z,8.18
2024-01-27T07:04:39.841Z,8.05
2024-01-27T07:05:40.167Z,8.22
2024-01-27T07:06:40.004Z,8.24
2024-01-27T07:07:39.875Z,8.30
2024-01-27T07:08:39.908Z,8.46
2024-01-27T07:09:39.919Z,8.57
2024-01-27T07:10:39.919Z,9.26
2024-01-27T07:11:39.925Z,10.39
2024-01-27T07:12:40.014Z,11.45
2024-01-27T07:13:39.922Z,12.05
2024-01-27T07:14:39.916Z,12.45
2024-01-27T07:15:40.109Z,12.67
2024-01-27T07:16:40.113Z,12.95
2024-01-27T07:17:40.132Z,12.72
2024-01-27T07:18:40.291Z,12.43
2024-01-27T07:19:40.218Z,12.11
2024-01-27T07:20:40.158Z,11.99
2024-01-27T07:21:40.242Z,12.69
2024-01-27T07:22:40.212Z,12.35
2024-01-27T07:23:40.240Z,12.09
2024-01-27T07:24:40.241Z,12.61
2024-01-27T07:25:40.286Z,13.10
2024-01-27T07:26:40.300Z,13.25
2024-01-27T07:27:40.490Z,14.28
2024-01-27T07:28:40.359Z,15.36
2024-01-27T07:29:40.361Z,14.18
2024-01-27T07:30:40.466Z,12.72
2024-01-27T07:31:40.417Z,11.19
2024-01-27T07:32:40.447Z,9.06
2024-01-27T07:33:40.566Z,7.58
2024-01-27T07:34:40.509Z,6.71
2024-01-27T07:35:40.502Z,6.19
2024-01-27T07:36:40.568Z,5.86
2024-01-27T07:37:40.511Z,6.07
2024-01-27T07:38:40.526Z,7.65
2024-01-27T07:39:40.677Z,10.42
2024-01-27T07:40:40.599Z,12.47
2024-01-27T07:41:40.630Z,14.60
2024-01-27T07:42:40.672Z,16.76
2024-01-27T07:43:40.665Z,18.50
2024-01-27T07:44:40.739Z,19.31
2024-01-27T07:45:40.745Z,19.73
2024-01-27T07:46:40.751Z,19.10
2024-01-27T07:47:40.833Z,18.60
2024-01-27T07:48:40.898Z,19.27
2024-01-27T07:49:40.890Z,20.62
2024-01-27T07:50:40.859Z,20.06
2024-01-27T07:51:40.870Z,22.11
2024-01-27T07:52:40.901Z,22.33
2024-01-27T07:53:40.948Z,20.18
2024-01-27T07:54:41.007Z,20.12
2024-01-27T07:55:41.041Z,20.60
2024-01-27T07:56:41.137Z,20.82
2024-01-27T07:57:41.204Z,20.86
2024-01-27T07:58:41.191Z,19.87
2024-01-27T07:59:41.221Z,20.34
2024-01-27T08:00:41.424Z,20.73
2024-01-27T08:01:41.289Z,21.33
2024-01-27T08:02:41.266Z,22.93
2024-01-27T08:03:41.341Z,28.17
2024-01-27T08:04:41.383Z,37.00
2024-01-27T08:05:41.377Z,51.76
2024-01-27T08:06:41.413Z,65.16
2024-01-27T08:07:41.470Z,67.42
2024-01-27T08:08:41.505Z,62.90
2024-01-27T08:09:41.540Z,53.59
2024-01-27T08:10:41.580Z,43.88
2024-01-27T08:11:41.757Z,37.22
2024-01-27T08:12:41.724Z,31.96
2024-01-27T08:13:41.788Z,27.79
2024-01-27T08:14:41.953Z,22.05
2024-01-27T08:15:41.997Z,18.77
2024-01-27T08:16:41.960Z,16.95
2024-01-27T08:17:42.049Z,16.87
2024-01-27T08:18:42.272Z,15.63
2024-01-27T08:19:42.220Z,14.61
2024-01-27T08:20:42.186Z,15.46
2024-01-27T08:21:42.326Z,14.34
2024-01-27T08:22:42.329Z,13.56
2024-01-27T08:23:42.401Z,12.93
2024-01-27T08:24:42.490Z,12.81
2024-01-27T08:25:42.524Z,11.89
2024-01-27T08:26:42.622Z,11.40
2024-01-27T08:27:42.680Z,10.56
2024-01-27T08:28:42.701Z,10.00
2024-01-27T08:29:42.787Z,8.93
2024-01-27T08:30:42.910Z,8.74
2024-01-27T08:31:43.023Z,8.17
2024-01-27T08:32:43.032Z,7.31
2024-01-27T08:33:43.092Z,6.72
2024-01-27T08:34:43.188Z,6.27
2024-01-27T08:35:43.190Z,5.48
2024-01-27T08:36:43.262Z,5.24
2024-01-27T08:37:43.270Z,5.00
2024-01-27T08:38:43.328Z,4.77
2024-01-27T08:39:43.466Z,3.94
2024-01-27T08:40:43.509Z,3.66
2024-01-27T08:41:43.501Z,3.23
2024-01-27T08:42:43.587Z,3.08
2024-01-27T08:43:43.615Z,3.15
2024-01-27T08:44:43.686Z,2.97
2024-01-27T08:45:43.742Z,2.97
2024-01-27T08:46:43.698Z,2.52
2024-01-27T08:47:43.758Z,2.15
2024-01-27T08:48:43.811Z,1.83
2024-01-27T08:49:43.803Z,1.74
2024-01-27T08:50:43.723Z,1.62
2024-01-27T08:51:43.707Z,1.50
2024-01-27T08:52:43.704Z,1.43
2024-01-27T08:53:43.815Z,1.42
2024-01-27T08:54:43.831Z,1.39
2024-01-27T08:55:43.721Z,1.32
2024-01-27T08:56:43.728Z,1.34
2024-01-27T08:57:43.734Z,1.24
2024-01-27T08:58:43.771Z,1.19
2024-01-27T08:59:43.839Z,1.04
2024-01-27T09:00:44.044Z,0.98
2024-01-27T09:01:43.914Z,0.97
2024-01-27T09:02:43.971Z,1.01
2024-01-27T09:03:44.081Z,1.02
2024-01-27T09:04:44.227Z,1.03
2024-01-27T09:05:44.148Z,1.01
2024-01-27T09:06:44.217Z,0.98
2024-01-27T09:07:44.176Z,0.94
2024-01-27T09:08:44.285Z,1.00
2024-01-27T09:09:44.380Z,0.83
2024-01-27T09:10:44.379Z,0.79
2024-01-27T09:11:44.430Z,0.73
2024-01-27T09:12:44.532Z,0.65
2024-01-27T09:13:44.504Z,0.65
2024-01-27T09:14:44.530Z,0.70
2024-01-27T09:15:44.571Z,0.68
2024-01-27T09:16:44.572Z,0.71
2024-01-27T09:17:44.587Z,0.71
2024-01-27T09:18:44.751Z,0.68
2024-01-27T09:19:44.685Z,0.67
2024-01-27T09:20:44.678Z,0.68
2024-01-27T09:21:44.722Z,0.67
2024-01-27T09:22:44.706Z,0.71
2024-01-27T09:23:44.712Z,0.76
2024-01-27T09:24:44.824Z,0.82
2024-01-27T09:25:44.736Z,0.88
2024-01-27T09:26:44.723Z,0.89
2024-01-27T09:27:44.803Z,0.93
2024-01-27T09:28:44.730Z,1.03
2024-01-27T09:29:44.737Z,1.16
2024-01-27T09:30:44.899Z,1.11
2024-01-27T09:31:44.770Z,0.83
2024-01-27T09:32:44.794Z,0.61
2024-01-27T09:33:44.786Z,0.50
2024-01-27T09:34:44.709Z,0.50
2024-01-27T09:35:44.774Z,0.50
2024-01-27T09:36:44.786Z,0.50
2024-01-27T09:37:44.741Z,0.50
2024-01-27T09:38:44.682Z,0.48
2024-01-27T09:39:44.737Z,0.45
2024-01-27T09:40:44.673Z,0.44
2024-01-27T09:41:44.686Z,0.44
2024-01-27T09:42:44.678Z,0.51
2024-01-27T09:43:44.663Z,0.54
2024-01-27T09:44:44.649Z,0.58
2024-01-27T09:45:44.717Z,0.62
2024-01-27T09:46:44.643Z,0.64
2024-01-27T09:47:44.705Z,0.67
2024-01-27T09:48:44.911Z,0.75
2024-01-27T09:49:44.796Z,0.78
2024-01-27T09:50:44.616Z,0.78
2024-01-27T09:51:44.670Z,0.83
2024-01-27T09:52:44.648Z,1.00
2024-01-27T09:53:44.716Z,1.14
2024-01-27T09:54:44.786Z,1.28
2024-01-27T09:55:44.777Z,1.28
2024-01-27T09:56:44.788Z,1.36
2024-01-27T09:57:44.744Z,1.30
2024-01-27T09:58:44.746Z,1.39
2024-01-27T09:59:44.772Z,1.55
2024-01-27T10:00:44.876Z,2.01
2024-01-27T10:01:44.734Z,3.09
2024-01-27T10:02:44.735Z,3.04
2024-01-27T10:03:44.912Z,2.76
2024-01-27T10:04:44.922Z,2.72
2024-01-27T10:05:44.860Z,2.37
2024-01-27T10:06:44.993Z,1.89
2024-01-27T10:07:44.987Z,1.80
2024-01-27T10:08:45.048Z,1.76
2024-01-27T10:09:45.085Z,1.74
2024-01-27T10:10:45.156Z,1.57
2024-01-27T10:11:45.255Z,1.38
2024-01-27T10:12:45.271Z,1.29
2024-01-27T10:13:45.350Z,1.24
2024-01-27T10:14:45.401Z,1.13
2024-01-27T10:15:45.502Z,1.05
2024-01-27T10:16:45.536Z,1.01
2024-01-27T10:17:45.642Z,1.01
2024-01-27T10:18:45.788Z,0.99
2024-01-27T10:19:46.043Z,0.95
2024-01-27T10:20:45.805Z,1.03
2024-01-27T10:21:45.884Z,1.11
2024-01-27T10:22:45.933Z,1.16
2024-01-27T10:23:45.953Z,1.28
2024-01-27T10:24:46.100Z,1.39
2024-01-27T10:25:46.067Z,1.37
2024-01-27T10:26:46.116Z,1.30
2024-01-27T10:27:46.234Z,1.30
2024-01-27T10:28:46.242Z,1.09
2024-01-27T10:29:46.316Z,0.97
2024-01-27T10:30:46.469Z,0.97
2024-01-27T10:31:46.399Z,0.92
2024-01-27T10:32:46.513Z,0.85
2024-01-27T10:33:46.613Z,0.80
2024-01-27T10:34:46.653Z,0.77
2024-01-27T10:35:46.658Z,0.76
2024-01-27T10:36:47.064Z,0.73
2024-01-27T10:37:46.755Z,0.71
2024-01-27T10:38:46.791Z,0.72
2024-01-27T10:39:46.873Z,0.74
2024-01-27T10:40:46.813Z,0.72
2024-01-27T10:41:46.834Z,0.74
2024-01-27T10:42:46.829Z,0.76
2024-01-27T10:43:46.886Z,0.77
2024-01-27T10:44:46.866Z,0.76
2024-01-27T10:45:46.972Z,0.77
2024-01-27T10:46:46.824Z,0.82
2024-01-27T10:47:46.877Z,0.83
2024-01-27T10:48:46.866Z,0.86
2024-01-27T10:49:46.964Z,0.95
2024-01-27T10:50:46.933Z,0.95
2024-01-27T10:51:46.829Z,0.95
2024-01-27T10:52:46.774Z,0.98
2024-01-27T10:53:46.788Z,1.02
2024-01-27T10:54:46.899Z,1.06
2024-01-27T10:55:46.768Z,1.06
2024-01-27T10:56:46.816Z,0.98
2024-01-27T10:57:46.820Z,0.98
2024-01-27T10:58:46.817Z,1.00
2024-01-27T10:59:46.804Z,1.03
2024-01-27T11:00:46.922Z,1.01
2024-01-27T11:01:46.809Z,0.95
2024-01-27T11:02:46.843Z,1.01
2024-01-27T11:03:46.925Z,0.96
2024-01-27T11:04:46.893Z,0.86
2024-01-27T11:05:46.950Z,0.81
2024-01-27T11:06:46.992Z,0.77
2024-01-27T11:07:46.883Z,0.84
2024-01-27T11:08:46.923Z,0.71
2024-01-27T11:09:46.950Z,0.68
2024-01-27T11:10:46.950Z,0.71
2024-01-27T11:11:47.008Z,0.71
2024-01-27T11:12:47.044Z,0.78
2024-01-27T11:13:47.070Z,0.81
2024-01-27T11:14:47.078Z,0.77
2024-01-27T11:15:47.197Z,0.79
2024-01-27T11:16:47.242Z,0.84
2024-01-27T11:17:47.292Z,0.78
2024-01-27T11:18:47.392Z,0.60
2024-01-27T11:19:47.353Z,0.51
2024-01-27T11:20:47.397Z,0.54
2024-01-27T11:21:47.546Z,0.62
2024-01-27T11:22:47.494Z,0.62
2024-01-27T11:23:47.558Z,0.64
2024-01-27T11:24:47.708Z,0.63
2024-01-27T11:25:47.679Z,0.62
2024-01-27T11:26:47.767Z,0.60
2024-01-27T11:27:47.823Z,0.59
2024-01-27T11:28:47.858Z,0.56
2024-01-27T11:29:47.981Z,0.57
2024-01-27T11:30:48.002Z,0.58
2024-01-27T11:31:48.038Z,0.56
2024-01-27T11:32:48.134Z,0.54
2024-01-27T11:33:48.407Z,0.51
2024-01-27T11:34:48.201Z,0.51
2024-01-27T11:35:48.189Z,0.52
2024-01-27T11:36:48.331Z,0.50
2024-01-27T11:37:48.325Z,0.50
2024-01-27T11:38:48.367Z,0.47
2024-01-27T11:39:48.503Z,0.50
2024-01-27T11:40:48.784Z,0.47
2024-01-27T11:41:48.532Z,0.49
2024-01-27T11:42:48.610Z,0.50
2024-01-27T11:43:48.607Z,0.50
2024-01-27T11:44:48.713Z,0.50
2024-01-27T11:45:48.782Z,0.52
2024-01-27T11:46:48.745Z,0.55
2024-01-27T11:47:48.911Z,0.52
2024-01-27T11:48:48.916Z,0.54
2024-01-27T11:49:48.918Z,0.54
2024-01-27T11:50:48.933Z,0.51
2024-01-27T11:51:49.032Z,0.50
2024-01-27T11:52:49.034Z,0.50
2024-01-27T11:53:49.061Z,0.55
2024-01-27T11:54:49.177Z,0.64
2024-01-27T11:55:49.184Z,0.65
2024-01-27T11:56:49.250Z,0.64
2024-01-27T11:57:49.326Z,0.59
2024-01-27T11:58:49.617Z,0.58
2024-01-27T11:59:49.565Z,0.62
2024-01-27T12:00:49.581Z,0.61
2024-01-27T12:01:49.631Z,0.72
2024-01-27T12:02:49.597Z,0.78
2024-01-27T12:03:49.825Z,0.77
2024-01-27T12:04:49.752Z,0.83
2024-01-27T12:05:50.718Z,0.83
2024-01-27T12:06:49.948Z,0.85
2024-01-27T12:07:49.949Z,0.86
2024-01-27T12:08:50.668Z,0.89
2024-01-27T12:09:50.060Z,0.88
2024-01-27T12:10:50.133Z,0.88
2024-01-27T12:11:50.122Z,0.86
2024-01-27T12:12:50.161Z,0.82
2024-01-27T12:13:50.256Z,0.80
2024-01-27T12:14:50.289Z,0.80
2024-01-27T12:15:50.409Z,0.80
2024-01-27T12:16:50.375Z,0.84
2024-01-27T12:17:50.445Z,0.93
2024-01-27T12:18:50.566Z,0.81
2024-01-27T12:19:50.634Z,0.73
2024-01-27T12:20:50.590Z,0.60
2024-01-27T12:21:50.605Z,0.57
2024-01-27T12:22:50.682Z,0.57
2024-01-27T12:23:50.718Z,0.59
2024-01-27T12:24:50.795Z,0.59
2024-01-27T12:25:50.824Z,0.60
2024-01-27T12:26:50.859Z,0.55
2024-01-27T12:27:50.885Z,0.55
2024-01-27T12:28:50.935Z,0.54
2024-01-27T12:29:50.988Z,0.55
2024-01-27T12:30:51.045Z,0.53
2024-01-27T12:31:51.059Z,0.52
2024-01-27T12:32:51.148Z,0.50
2024-01-27T12:33:51.398Z,0.50
2024-01-27T12:34:51.503Z,0.53
2024-01-27T12:35:51.276Z,0.50
2024-01-27T12:36:51.345Z,0.51
2024-01-27T12:37:51.416Z,0.52
2024-01-27T12:38:51.432Z,0.52
2024-01-27T12:39:51.554Z,0.55
2024-01-27T12:40:51.546Z,0.53
2024-01-27T12:41:51.628Z,0.51
2024-01-27T12:42:51.660Z,0.54
2024-01-27T12:43:51.680Z,0.51
2024-01-27T12:44:51.767Z,0.52
2024-01-27T12:45:51.895Z,0.53
2024-01-27T12:46:51.901Z,0.55
2024-01-27T12:47:52.176Z,0.57
2024-01-27T12:48:52.079Z,0.56
2024-01-27T12:49:52.250Z,0.62
2024-01-27T12:50:52.092Z,0.63
2024-01-27T12:51:52.085Z,0.62
2024-01-27T12:52:52.166Z,0.53
2024-01-27T12:53:52.194Z,0.53
2024-01-27T12:54:52.278Z,0.59
2024-01-27T12:55:52.345Z,0.62
2024-01-27T12:56:52.379Z,0.65
2024-01-27T12:57:52.405Z,0.63
2024-01-27T12:58:52.561Z,0.61
2024-01-27T12:59:52.535Z,0.61
2024-01-27T13:00:52.682Z,0.58
2024-01-27T13:01:52.619Z,0.62
2024-01-27T13:02:52.683Z,0.66
2024-01-27T13:03:52.982Z,0.64
2024-01-27T13:04:52.717Z,0.65
2024-01-27T13:05:55.985Z,0.64
2024-01-27T13:06:52.832Z,0.68
2024-01-27T13:07:52.778Z,0.67
2024-01-27T13:08:52.814Z,0.69
2024-01-27T13:09:52.827Z,0.67
2024-01-27T13:10:52.814Z,0.64
2024-01-27T13:11:52.906Z,0.61
2024-01-27T13:12:52.853Z,0.56
2024-01-27T13:13:52.879Z,0.54
2024-01-27T13:14:53.010Z,0.51
2024-01-27T13:15:52.969Z,0.53
2024-01-27T13:16:52.918Z,0.54